createdAt,value
2017-04-09T00:00:05.872Z,0
2017-04-09T00:00:46.346Z,0
2017-04-09T00:01:26.819Z,0
2017-04-09T00:02:07.290Z,0
2017-04-09T00:02:47.796Z,0
2017-04-09T00:03:28.280Z,0
2017-04-09T00:04:08.721Z,0
2017-04-09T00:04:49.178Z,0
2017-04-09T00:05:29.661Z,0
2017-04-09T00:06:10.147Z,0
2017-04-09T00:06:50.654Z,0
2017-04-09T00:07:31.151Z,0
2017-04-09T00:08:11.634Z,0
2017-04-09T00:08:52.105Z,0
2017-04-09T00:09:32.571Z,0
2017-04-09T00:10:13.032Z,0
2017-04-09T00:10:53.483Z,0
2017-04-09T00:11:33.963Z,0
2017-04-09T00:12:14.439Z,0
2017-04-09T00:12:54.904Z,0
2017-04-09T00:13:35.391Z,0
2017-04-09T00:14:15.871Z,0
2017-04-09T00:14:56.336Z,0
2017-04-09T00:15:36.763Z,0
2017-04-09T00:16:17.253Z,0
2017-04-09T00:16:57.711Z,0
2017-04-09T00:17:38.214Z,0
2017-04-09T00:18:18.685Z,0
2017-04-09T00:18:59.165Z,0
2017-04-09T00:19:39.652Z,0
2017-04-09T00:20:20.128Z,0
2017-04-09T00:21:00.579Z,0
2017-04-09T00:21:41.082Z,0
2017-04-09T00:22:21.544Z,0
2017-04-09T00:23:02.021Z,0
2017-04-09T00:23:42.492Z,0
2017-04-09T00:24:22.978Z,0
2017-04-09T00:25:03.472Z,0
2017-04-09T00:25:44.055Z,0
2017-04-09T00:26:24.552Z,0
2017-04-09T00:27:05.039Z,0
2017-04-09T00:27:45.494Z,0
2017-04-09T00:28:25.995Z,0
2017-04-09T00:29:06.456Z,0
2017-04-09T00:29:46.947Z,0
2017-04-09T00:30:27.419Z,0
2017-04-09T00:31:07.901Z,0
2017-04-09T00:31:48.390Z,0
2017-04-09T00:32:28.881Z,0
2017-04-09T00:33:09.363Z,0
2017-04-09T00:33:49.836Z,0
2017-04-09T00:34:30.339Z,0
2017-04-09T00:35:10.821Z,0
2017-04-09T00:35:51.295Z,0
2017-04-09T00:36:31.767Z,0
2017-04-09T00:37:12.254Z,0
2017-04-09T00:37:52.715Z,0
2017-04-09T00:38:33.247Z,0
2017-04-09T00:39:13.708Z,0
2017-04-09T00:39:54.195Z,0
2017-04-09T00:40:34.694Z,0
2017-04-09T00:41:15.155Z,0
2017-04-09T00:41:55.625Z,0
2017-04-09T00:42:36.127Z,0
2017-04-09T00:43:16.581Z,0
2017-04-09T00:43:57.037Z,0
2017-04-09T00:44:37.504Z,0
2017-04-09T00:45:17.978Z,0
2017-04-09T00:45:58.480Z,0
2017-04-09T00:46:38.959Z,0
2017-04-09T00:47:19.460Z,0
2017-04-09T00:47:59.963Z,0
2017-04-09T00:48:40.450Z,0
2017-04-09T00:49:20.927Z,0
2017-04-09T00:50:01.390Z,0
2017-04-09T00:50:41.834Z,0
2017-04-09T00:51:22.338Z,0
2017-04-09T00:52:02.816Z,0
2017-04-09T00:52:43.302Z,0
2017-04-09T00:53:23.881Z,0
2017-04-09T00:54:04.396Z,0
2017-04-09T00:54:44.867Z,0
2017-04-09T00:55:26.881Z,0
2017-04-09T00:56:07.393Z,0
2017-04-09T00:56:47.847Z,0
2017-04-09T00:57:28.338Z,0
2017-04-09T00:58:08.802Z,0
2017-04-09T00:58:49.301Z,0
2017-04-09T00:59:29.747Z,0
2017-04-09T01:00:10.218Z,0
2017-04-09T01:00:50.700Z,0
2017-04-09T01:01:31.178Z,0
2017-04-09T01:02:11.674Z,0
2017-04-09T01:02:52.166Z,0
2017-04-09T01:03:32.626Z,0
2017-04-09T01:04:13.114Z,0
2017-04-09T01:04:53.606Z,0
2017-04-09T01:05:34.090Z,0
2017-04-09T01:06:14.590Z,0
2017-04-09T01:06:55.053Z,0
2017-04-09T01:07:35.545Z,0
2017-04-09T01:08:16.036Z,0
2017-04-09T01:08:56.483Z,0
2017-04-09T01:09:37.016Z,0
2017-04-09T01:10:17.489Z,0
2017-04-09T01:10:57.975Z,0
2017-04-09T01:11:38.419Z,0
2017-04-09T01:12:18.916Z,0
2017-04-09T01:12:59.386Z,0
2017-04-09T01:13:39.856Z,0
2017-04-09T01:14:20.330Z,0
2017-04-09T01:15:00.813Z,0
2017-04-09T01:15:41.315Z,0
2017-04-09T01:16:21.863Z,0
2017-04-09T01:17:02.357Z,0
2017-04-09T01:17:42.813Z,0
2017-04-09T01:18:23.311Z,0
2017-04-09T01:19:03.765Z,0
2017-04-09T01:19:44.261Z,0
2017-04-09T01:20:24.709Z,0
2017-04-09T01:21:05.170Z,0
2017-04-09T01:21:45.652Z,0
2017-04-09T01:22:26.115Z,0
2017-04-09T01:23:06.591Z,0
2017-04-09T01:23:47.077Z,0
2017-04-09T01:24:27.559Z,0
2017-04-09T01:25:08.042Z,0
2017-04-09T01:25:48.518Z,0
2017-04-09T01:26:28.985Z,0
2017-04-09T01:27:09.451Z,0
2017-04-09T01:27:49.954Z,0
2017-04-09T01:28:30.425Z,0
2017-04-09T01:29:10.947Z,0
2017-04-09T01:29:51.438Z,0
2017-04-09T01:30:31.909Z,0
2017-04-09T01:31:12.399Z,0
2017-04-09T01:31:52.866Z,0
2017-04-09T01:32:33.345Z,0
2017-04-09T01:33:13.837Z,0
2017-04-09T01:33:54.297Z,0
2017-04-09T01:34:34.775Z,0
2017-04-09T01:35:15.255Z,0
2017-04-09T01:35:55.735Z,0
2017-04-09T01:36:36.201Z,0
2017-04-09T01:37:16.660Z,0
2017-04-09T01:37:57.150Z,0
2017-04-09T01:38:37.636Z,0
2017-04-09T01:39:18.098Z,0
2017-04-09T01:39:58.622Z,0
2017-04-09T01:40:39.087Z,0
2017-04-09T01:41:19.570Z,0
2017-04-09T01:42:00.042Z,0
2017-04-09T01:42:40.530Z,0
2017-04-09T01:43:21.000Z,0
2017-04-09T01:44:01.458Z,0
2017-04-09T01:44:41.976Z,0
2017-04-09T01:45:22.452Z,0
2017-04-09T01:46:02.943Z,0
2017-04-09T01:46:43.426Z,0
2017-04-09T01:47:23.978Z,0
2017-04-09T01:48:04.446Z,0
2017-04-09T01:48:44.913Z,0
2017-04-09T01:49:25.420Z,0
2017-04-09T01:50:05.894Z,0
2017-04-09T01:50:46.352Z,0
2017-04-09T01:51:26.802Z,0
2017-04-09T01:52:07.267Z,0
2017-04-09T01:52:47.772Z,0
2017-04-09T01:53:28.251Z,0
2017-04-09T01:54:08.721Z,0
2017-04-09T01:54:49.216Z,0
2017-04-09T01:55:29.673Z,0
2017-04-09T01:56:10.161Z,0
2017-04-09T01:56:50.621Z,0
2017-04-09T01:57:31.061Z,0
2017-04-09T01:58:11.552Z,0
2017-04-09T01:58:52.041Z,0
2017-04-09T01:59:32.496Z,0
2017-04-09T02:00:12.981Z,0
2017-04-09T02:00:53.456Z,0
2017-04-09T02:01:33.917Z,0
2017-04-09T02:02:14.399Z,0
2017-04-09T02:02:54.843Z,0
2017-04-09T02:03:35.300Z,0
2017-04-09T02:04:15.765Z,0
2017-04-09T02:04:56.250Z,0
2017-04-09T02:05:36.703Z,0
2017-04-09T02:06:17.169Z,0
2017-04-09T02:06:57.705Z,0
2017-04-09T02:07:38.162Z,0
2017-04-09T02:08:18.640Z,0
2017-04-09T02:08:59.143Z,0
2017-04-09T02:09:39.605Z,0
2017-04-09T02:10:20.069Z,0
2017-04-09T02:11:00.525Z,0
2017-04-09T02:11:40.994Z,0
2017-04-09T02:12:21.477Z,0
2017-04-09T02:13:01.976Z,0
2017-04-09T02:13:42.425Z,0
2017-04-09T02:14:22.882Z,0
2017-04-09T02:15:03.385Z,0
2017-04-09T02:15:43.873Z,0
2017-04-09T02:16:24.369Z,0
2017-04-09T02:17:04.812Z,0
2017-04-09T02:17:45.279Z,0
2017-04-09T02:18:25.753Z,0
2017-04-09T02:19:06.217Z,0
2017-04-09T02:19:46.691Z,0
2017-04-09T02:20:27.179Z,0
2017-04-09T02:21:07.638Z,0
2017-04-09T02:21:48.144Z,0
2017-04-09T02:22:28.583Z,0
2017-04-09T02:23:09.058Z,0
2017-04-09T02:23:49.531Z,0
2017-04-09T02:24:29.977Z,0
2017-04-09T02:25:10.464Z,0
2017-04-09T02:25:50.938Z,0
2017-04-09T02:26:31.405Z,0
2017-04-09T02:27:11.894Z,0
2017-04-09T02:27:52.353Z,0
2017-04-09T02:28:32.805Z,0
2017-04-09T02:29:13.283Z,0
2017-04-09T02:29:53.740Z,0
2017-04-09T02:30:34.233Z,0
2017-04-09T02:31:14.724Z,0
2017-04-09T02:31:55.153Z,0
2017-04-09T02:32:35.666Z,0
2017-04-09T02:33:16.114Z,0
2017-04-09T02:33:56.574Z,0
2017-04-09T02:34:37.031Z,0
2017-04-09T02:35:17.517Z,0
2017-04-09T02:35:57.994Z,0
2017-04-09T02:36:38.483Z,0
2017-04-09T02:37:18.942Z,0
2017-04-09T02:37:59.472Z,0
2017-04-09T02:38:39.908Z,0
2017-04-09T02:39:20.382Z,0
2017-04-09T02:40:00.861Z,0
2017-04-09T02:40:41.329Z,0
2017-04-09T02:41:21.808Z,0
2017-04-09T02:42:02.272Z,0
2017-04-09T02:42:42.733Z,0
2017-04-09T02:43:23.200Z,0
2017-04-09T02:44:03.681Z,0
2017-04-09T02:44:44.131Z,0
2017-04-09T02:45:24.624Z,0
2017-04-09T02:46:05.081Z,0
2017-04-09T02:46:45.605Z,0
2017-04-09T02:47:26.037Z,0
2017-04-09T02:48:06.520Z,0
2017-04-09T02:48:46.976Z,0
2017-04-09T02:49:27.449Z,0
2017-04-09T02:50:07.936Z,0
2017-04-09T02:50:48.392Z,0
2017-04-09T02:51:28.898Z,0
2017-04-09T02:52:09.392Z,0
2017-04-09T02:52:49.860Z,0
2017-04-09T02:53:30.309Z,0
2017-04-09T02:54:10.813Z,0
2017-04-09T02:54:51.250Z,0
2017-04-09T02:55:31.717Z,0
2017-04-09T02:56:12.181Z,0
2017-04-09T02:56:52.644Z,0
2017-04-09T02:57:33.105Z,0
2017-04-09T02:58:13.584Z,0
2017-04-09T02:58:54.070Z,0
2017-04-09T02:59:34.535Z,0
2017-04-09T03:00:14.997Z,0
2017-04-09T03:00:55.488Z,0
2017-04-09T03:01:35.937Z,0
2017-04-09T03:02:16.447Z,0
2017-04-09T03:02:56.905Z,0
2017-04-09T03:03:37.395Z,0
2017-04-09T03:04:17.842Z,0
2017-04-09T03:04:58.301Z,0
2017-04-09T03:05:38.807Z,0
2017-04-09T03:06:19.284Z,0
2017-04-09T03:06:59.764Z,0
2017-04-09T03:07:40.233Z,0
2017-04-09T03:08:20.749Z,0
2017-04-09T03:09:01.247Z,0
2017-04-09T03:09:41.779Z,0
2017-04-09T03:10:22.206Z,0
2017-04-09T03:11:02.699Z,0
2017-04-09T03:11:43.187Z,0
2017-04-09T03:12:23.640Z,0
2017-04-09T03:13:04.125Z,0
2017-04-09T03:13:44.576Z,0
2017-04-09T03:14:25.090Z,0
2017-04-09T03:15:05.550Z,0
2017-04-09T03:15:46.023Z,0
2017-04-09T03:16:26.518Z,0
2017-04-09T03:17:07.011Z,0
2017-04-09T03:17:47.489Z,0
2017-04-09T03:18:27.973Z,0
2017-04-09T03:19:08.449Z,0
2017-04-09T03:19:48.924Z,0
2017-04-09T03:20:29.425Z,0
2017-04-09T03:21:09.910Z,0
2017-04-09T03:21:50.370Z,0
2017-04-09T03:22:30.879Z,0
2017-04-09T03:23:11.362Z,0
2017-04-09T03:23:51.835Z,0
2017-04-09T03:24:32.310Z,0
2017-04-09T03:25:12.817Z,0
2017-04-09T03:25:53.254Z,0
2017-04-09T03:26:33.739Z,0
2017-04-09T03:27:14.238Z,0
2017-04-09T03:27:54.706Z,0
2017-04-09T03:28:35.197Z,0
2017-04-09T03:29:15.683Z,0
2017-04-09T03:29:56.188Z,0
2017-04-09T03:30:36.656Z,0
2017-04-09T03:31:17.154Z,0
2017-04-09T03:31:57.622Z,0
2017-04-09T03:32:38.108Z,0
2017-04-09T03:33:18.610Z,0
2017-04-09T03:33:59.078Z,0
2017-04-09T03:34:39.568Z,0
2017-04-09T03:35:20.126Z,0
2017-04-09T03:36:00.601Z,0
2017-04-09T03:36:41.106Z,0
2017-04-09T03:37:21.587Z,0
2017-04-09T03:38:02.121Z,0
2017-04-09T03:38:42.626Z,0
2017-04-09T03:39:23.093Z,0
2017-04-09T03:40:03.572Z,0
2017-04-09T03:40:44.048Z,0
2017-04-09T03:41:24.546Z,0
2017-04-09T03:42:05.004Z,0
2017-04-09T03:42:45.490Z,0
2017-04-09T03:43:26.004Z,0
2017-04-09T03:44:06.455Z,0
2017-04-09T03:44:46.970Z,0
2017-04-09T03:45:27.444Z,0
2017-04-09T03:46:07.877Z,0
2017-04-09T03:46:48.337Z,0
2017-04-09T03:47:28.816Z,0
2017-04-09T03:48:09.259Z,0
2017-04-09T03:48:49.746Z,0
2017-04-09T03:49:30.263Z,0
2017-04-09T03:50:10.792Z,0
2017-04-09T03:50:51.274Z,0
2017-04-09T03:51:31.778Z,0
2017-04-09T03:52:12.260Z,0
2017-04-09T03:52:52.737Z,0
2017-04-09T03:53:33.215Z,0
2017-04-09T03:54:13.674Z,0
2017-04-09T03:54:54.183Z,0
2017-04-09T03:55:34.659Z,0
2017-04-09T03:56:15.133Z,0
2017-04-09T03:56:55.580Z,0
2017-04-09T03:57:36.066Z,0
2017-04-09T03:58:16.561Z,0
2017-04-09T03:58:57.013Z,0
2017-04-09T03:59:37.489Z,0
2017-04-09T04:00:17.946Z,0
2017-04-09T04:00:58.434Z,0
2017-04-09T04:01:38.909Z,0
2017-04-09T04:02:19.373Z,0
2017-04-09T04:03:01.455Z,0
2017-04-09T04:03:41.951Z,0
2017-04-09T04:04:22.413Z,0
2017-04-09T04:05:02.920Z,0
2017-04-09T04:05:43.412Z,0
2017-04-09T04:06:23.869Z,0
2017-04-09T04:07:04.348Z,0
2017-04-09T04:07:44.813Z,0
2017-04-09T04:08:25.284Z,0
2017-04-09T04:09:05.745Z,0
2017-04-09T04:09:46.226Z,0
2017-04-09T04:10:26.714Z,0
2017-04-09T04:11:07.203Z,0
2017-04-09T04:11:47.634Z,0
2017-04-09T04:12:28.115Z,0
2017-04-09T04:13:08.570Z,0
2017-04-09T04:13:49.053Z,0
2017-04-09T04:14:29.583Z,0
2017-04-09T04:15:10.019Z,0
2017-04-09T04:15:50.493Z,0
2017-04-09T04:16:30.940Z,0
2017-04-09T04:17:11.426Z,0
2017-04-09T04:17:51.911Z,0
2017-04-09T04:18:32.352Z,0
2017-04-09T04:19:12.832Z,0
2017-04-09T04:19:53.294Z,0
2017-04-09T04:20:33.781Z,0
2017-04-09T04:21:14.248Z,0
2017-04-09T04:21:54.743Z,0
2017-04-09T04:22:35.195Z,0
2017-04-09T04:23:15.687Z,0
2017-04-09T04:23:56.163Z,0
2017-04-09T04:24:36.672Z,0
2017-04-09T04:25:17.117Z,0
2017-04-09T04:25:57.624Z,0
2017-04-09T04:26:38.090Z,0
2017-04-09T04:27:18.545Z,0
2017-04-09T04:27:59.026Z,0
2017-04-09T04:28:39.522Z,0
2017-04-09T04:29:20.012Z,0
2017-04-09T04:30:00.492Z,0
2017-04-09T04:30:40.967Z,5
2017-04-09T04:31:21.450Z,5
2017-04-09T04:32:02.002Z,5
2017-04-09T04:32:42.527Z,5
2017-04-09T04:33:22.975Z,5
2017-04-09T04:34:03.456Z,5
2017-04-09T04:34:43.902Z,5
2017-04-09T04:35:24.377Z,5
2017-04-09T04:36:04.852Z,5
2017-04-09T04:36:45.302Z,5
2017-04-09T04:37:25.832Z,5
2017-04-09T04:38:06.308Z,10
2017-04-09T04:38:46.776Z,10
2017-04-09T04:39:27.300Z,10
2017-04-09T04:40:07.770Z,10
2017-04-09T04:40:48.183Z,10
2017-04-09T04:41:28.660Z,10
2017-04-09T04:42:09.255Z,10
2017-04-09T04:42:49.728Z,15
2017-04-09T04:43:30.217Z,15
2017-04-09T04:44:10.734Z,15
2017-04-09T04:44:51.198Z,15
2017-04-09T04:45:31.652Z,15
2017-04-09T04:46:12.124Z,15
2017-04-09T04:46:52.627Z,15
2017-04-09T04:47:33.109Z,20
2017-04-09T04:48:13.533Z,20
2017-04-09T04:48:54.046Z,20
2017-04-09T04:49:34.553Z,20
2017-04-09T04:50:14.969Z,20
2017-04-09T04:50:55.416Z,20
2017-04-09T04:51:35.898Z,25
2017-04-09T04:52:16.368Z,25
2017-04-09T04:52:56.905Z,25
2017-04-09T04:53:37.402Z,25
2017-04-09T04:54:17.877Z,25
2017-04-09T04:54:58.373Z,25
2017-04-09T04:55:38.830Z,30
2017-04-09T04:56:19.347Z,30
2017-04-09T04:56:59.794Z,30
2017-04-09T04:57:40.255Z,30
2017-04-09T04:58:20.764Z,30
2017-04-09T04:59:01.224Z,30
2017-04-09T04:59:41.697Z,35
2017-04-09T05:00:22.183Z,35
2017-04-09T05:01:02.631Z,35
2017-04-09T05:01:43.145Z,35
2017-04-09T05:02:23.700Z,35
2017-04-09T05:03:04.151Z,40
2017-04-09T05:03:44.677Z,40
2017-04-09T05:04:25.125Z,40
2017-04-09T05:05:05.593Z,40
2017-04-09T05:05:46.101Z,40
2017-04-09T05:06:26.562Z,40
2017-04-09T05:07:07.019Z,45
2017-04-09T05:07:47.488Z,45
2017-04-09T05:08:27.953Z,45
2017-04-09T05:09:08.433Z,45
2017-04-09T05:09:48.883Z,45
2017-04-09T05:10:29.399Z,50
2017-04-09T05:11:09.904Z,50
2017-04-09T05:11:50.379Z,50
2017-04-09T05:12:30.850Z,50
2017-04-09T05:13:11.295Z,50
2017-04-09T05:13:51.768Z,55
2017-04-09T05:14:32.319Z,55
2017-04-09T05:15:12.826Z,55
2017-04-09T05:15:53.273Z,55
2017-04-09T05:16:33.786Z,55
2017-04-09T05:17:14.245Z,55
2017-04-09T05:17:54.788Z,60
2017-04-09T05:18:35.240Z,60
2017-04-09T05:19:15.746Z,60
2017-04-09T05:19:56.228Z,60
2017-04-09T05:20:36.705Z,60
2017-04-09T05:21:17.192Z,60
2017-04-09T05:21:57.682Z,60
2017-04-09T05:22:38.148Z,60
2017-04-09T05:23:18.616Z,65
2017-04-09T05:23:59.062Z,65
2017-04-09T05:24:39.519Z,65
2017-04-09T05:25:20.031Z,65
2017-04-09T05:26:00.497Z,65
2017-04-09T05:26:40.976Z,70
2017-04-09T05:27:21.463Z,70
2017-04-09T05:28:01.951Z,70
2017-04-09T05:28:42.421Z,70
2017-04-09T05:29:22.895Z,75
2017-04-09T05:30:03.398Z,75
2017-04-09T05:30:43.896Z,75
2017-04-09T05:31:24.370Z,75
2017-04-09T05:32:04.834Z,75
2017-04-09T05:32:45.293Z,75
2017-04-09T05:33:25.805Z,75
2017-04-09T05:34:06.282Z,80
2017-04-09T05:34:46.741Z,80
2017-04-09T05:35:27.233Z,80
2017-04-09T05:36:07.708Z,80
2017-04-09T05:36:48.169Z,85
2017-04-09T05:37:28.657Z,85
2017-04-09T05:38:09.116Z,80
2017-04-09T05:38:49.575Z,80
2017-04-09T05:39:30.093Z,85
2017-04-09T05:40:10.557Z,90
2017-04-09T05:40:51.017Z,90
2017-04-09T05:41:31.498Z,90
2017-04-09T05:42:12.015Z,90
2017-04-09T05:42:52.505Z,95
2017-04-09T05:43:32.947Z,95
2017-04-09T05:44:13.513Z,90
2017-04-09T05:44:53.964Z,90
2017-04-09T05:45:34.449Z,95
2017-04-09T05:46:14.953Z,95
2017-04-09T05:46:56.260Z,100
2017-04-09T05:47:36.732Z,100
2017-04-09T05:48:17.201Z,95
2017-04-09T05:48:57.659Z,95
2017-04-09T05:49:38.148Z,100
2017-04-09T05:50:18.664Z,100
2017-04-09T05:50:59.144Z,105
2017-04-09T05:51:39.613Z,100
2017-04-09T05:52:20.078Z,105
2017-04-09T05:53:00.586Z,105
2017-04-09T05:53:41.048Z,105
2017-04-09T05:54:21.540Z,105
2017-04-09T05:55:01.987Z,105
2017-04-09T05:55:42.459Z,105
2017-04-09T05:56:22.930Z,110
2017-04-09T05:57:03.385Z,110
2017-04-09T05:57:43.867Z,110
2017-04-09T05:58:24.355Z,110
2017-04-09T05:59:04.855Z,110
2017-04-09T05:59:45.336Z,110
2017-04-09T06:00:25.806Z,110
2017-04-09T06:01:06.234Z,115
2017-04-09T06:01:46.698Z,110
2017-04-09T06:02:27.197Z,115
2017-04-09T06:03:07.704Z,110
2017-04-09T06:03:48.179Z,115
2017-04-09T06:04:28.664Z,110
2017-04-09T06:05:09.133Z,115
2017-04-09T06:05:49.595Z,120
2017-04-09T06:06:30.120Z,120
2017-04-09T06:07:10.605Z,120
2017-04-09T06:07:51.093Z,120
2017-04-09T06:08:31.559Z,120
2017-04-09T06:09:12.038Z,115
2017-04-09T06:09:52.573Z,120
2017-04-09T06:10:33.000Z,120
2017-04-09T06:11:13.539Z,120
2017-04-09T06:11:54.023Z,120
2017-04-09T06:12:34.495Z,125
2017-04-09T06:13:14.960Z,130
2017-04-09T06:13:55.480Z,125
2017-04-09T06:14:35.946Z,125
2017-04-09T06:15:16.432Z,125
2017-04-09T06:15:56.914Z,125
2017-04-09T06:16:37.424Z,125
2017-04-09T06:17:17.886Z,125
2017-04-09T06:17:58.357Z,125
2017-04-09T06:18:38.842Z,125
2017-04-09T06:19:19.296Z,130
2017-04-09T06:19:59.773Z,125
2017-04-09T06:20:40.253Z,130
2017-04-09T06:21:20.742Z,130
2017-04-09T06:22:01.183Z,130
2017-04-09T06:22:41.680Z,130
2017-04-09T06:23:22.163Z,130
2017-04-09T06:24:02.600Z,130
2017-04-09T06:24:43.058Z,130
2017-04-09T06:25:23.531Z,135
2017-04-09T06:26:03.997Z,135
2017-04-09T06:26:44.482Z,140
2017-04-09T06:27:24.937Z,130
2017-04-09T06:28:05.439Z,135
2017-04-09T06:28:45.908Z,135
2017-04-09T06:29:26.375Z,130
2017-04-09T06:30:06.859Z,135
2017-04-09T06:30:47.412Z,135
2017-04-09T06:31:27.870Z,135
2017-04-09T06:32:08.369Z,130
2017-04-09T06:32:48.857Z,140
2017-04-09T06:33:29.457Z,135
2017-04-09T06:34:09.935Z,135
2017-04-09T06:34:50.398Z,140
2017-04-09T06:35:30.900Z,135
2017-04-09T06:36:11.382Z,130
2017-04-09T06:36:51.848Z,130
2017-04-09T06:37:32.298Z,135
2017-04-09T06:38:12.785Z,130
2017-04-09T06:38:53.239Z,135
2017-04-09T06:39:33.727Z,130
2017-04-09T06:40:14.214Z,130
2017-04-09T06:40:54.697Z,130
2017-04-09T06:41:35.194Z,130
2017-04-09T06:42:15.664Z,135
2017-04-09T06:42:56.155Z,135
2017-04-09T06:43:36.636Z,130
2017-04-09T06:44:17.090Z,130
2017-04-09T06:44:57.588Z,130
2017-04-09T06:45:38.073Z,130
2017-04-09T06:46:18.544Z,130
2017-04-09T06:46:59.042Z,130
2017-04-09T06:47:39.566Z,130
2017-04-09T06:48:20.007Z,130
2017-04-09T06:49:00.467Z,130
2017-04-09T06:49:40.962Z,130
2017-04-09T06:50:21.389Z,135
2017-04-09T06:51:01.891Z,135
2017-04-09T06:51:42.372Z,130
2017-04-09T06:52:22.859Z,135
2017-04-09T06:53:03.338Z,135
2017-04-09T06:53:43.837Z,130
2017-04-09T06:54:24.271Z,135
2017-04-09T06:55:04.730Z,135
2017-04-09T06:55:45.214Z,135
2017-04-09T06:56:25.681Z,135
2017-04-09T06:57:06.222Z,135
2017-04-09T06:57:46.680Z,135
2017-04-09T06:58:27.153Z,135
2017-04-09T06:59:07.629Z,135
2017-04-09T06:59:48.128Z,135
2017-04-09T07:00:28.611Z,135
2017-04-09T07:01:09.118Z,135
2017-04-09T07:01:49.606Z,135
2017-04-09T07:02:30.052Z,135
2017-04-09T07:03:10.534Z,135
2017-04-09T07:03:50.991Z,135
2017-04-09T07:04:31.450Z,135
2017-04-09T07:05:11.949Z,135
2017-04-09T07:05:52.383Z,135
2017-04-09T07:06:32.904Z,135
2017-04-09T07:07:13.361Z,135
2017-04-09T07:07:53.851Z,135
2017-04-09T07:08:34.347Z,135
2017-04-09T07:09:14.772Z,135
2017-04-09T07:09:55.246Z,135
2017-04-09T07:10:35.732Z,135
2017-04-09T07:11:16.226Z,135
2017-04-09T07:11:56.687Z,135
2017-04-09T07:12:37.153Z,135
2017-04-09T07:13:17.638Z,135
2017-04-09T07:13:58.111Z,135
2017-04-09T07:14:38.605Z,135
2017-04-09T07:15:19.231Z,135
2017-04-09T07:15:59.538Z,135
2017-04-09T07:16:40.016Z,140
2017-04-09T07:17:20.530Z,140
2017-04-09T07:18:00.973Z,140
2017-04-09T07:18:41.472Z,140
2017-04-09T07:19:21.944Z,140
2017-04-09T07:20:02.448Z,140
2017-04-09T07:20:42.937Z,140
2017-04-09T07:21:23.427Z,140
2017-04-09T07:22:03.911Z,140
2017-04-09T07:22:44.351Z,140
2017-04-09T07:23:24.845Z,140
2017-04-09T07:24:05.320Z,140
2017-04-09T07:24:45.817Z,140
2017-04-09T07:25:26.320Z,140
2017-04-09T07:26:06.772Z,140
2017-04-09T07:26:47.289Z,140
2017-04-09T07:27:27.762Z,140
2017-04-09T07:28:08.204Z,140
2017-04-09T07:28:48.694Z,140
2017-04-09T07:29:29.154Z,140
2017-04-09T07:30:09.652Z,140
2017-04-09T07:30:50.126Z,140
2017-04-09T07:31:30.601Z,140
2017-04-09T07:32:11.099Z,140
2017-04-09T07:32:51.570Z,140
2017-04-09T07:33:32.049Z,140
2017-04-09T07:34:12.552Z,140
2017-04-09T07:34:53.046Z,140
2017-04-09T07:35:33.521Z,140
2017-04-09T07:36:13.971Z,140
2017-04-09T07:36:54.457Z,145
2017-04-09T07:37:34.931Z,145
2017-04-09T07:38:15.442Z,145
2017-04-09T07:38:55.967Z,145
2017-04-09T07:39:36.443Z,145
2017-04-09T07:40:16.933Z,145
2017-04-09T07:40:57.429Z,145
2017-04-09T07:41:37.913Z,145
2017-04-09T07:42:18.396Z,145
2017-04-09T07:42:58.868Z,145
2017-04-09T07:43:39.356Z,145
2017-04-09T07:44:19.835Z,145
2017-04-09T07:45:00.306Z,145
2017-04-09T07:45:40.814Z,145
2017-04-09T07:46:21.284Z,145
2017-04-09T07:47:01.763Z,145
2017-04-09T07:47:42.252Z,145
2017-04-09T07:48:22.713Z,145
2017-04-09T07:49:03.213Z,145
2017-04-09T07:49:43.645Z,145
2017-04-09T07:50:24.128Z,145
2017-04-09T07:51:04.606Z,150
2017-04-09T07:51:45.081Z,150
2017-04-09T07:52:25.522Z,150
2017-04-09T07:53:06.007Z,150
2017-04-09T07:53:46.526Z,150
2017-04-09T07:54:27.026Z,150
2017-04-09T07:55:07.488Z,150
2017-04-09T07:55:47.966Z,150
2017-04-09T07:56:28.402Z,150
2017-04-09T07:57:08.916Z,145
2017-04-09T07:57:49.393Z,150
2017-04-09T07:58:29.866Z,150
2017-04-09T07:59:10.356Z,150
2017-04-09T07:59:50.820Z,150
2017-04-09T08:00:31.279Z,150
2017-04-09T08:01:11.792Z,150
2017-04-09T08:01:52.249Z,150
2017-04-09T08:02:32.761Z,150
2017-04-09T08:03:13.183Z,145
2017-04-09T08:03:53.673Z,150
2017-04-09T08:04:34.157Z,150
2017-04-09T08:05:14.613Z,150
2017-04-09T08:05:55.112Z,155
2017-04-09T08:06:35.578Z,160
2017-04-09T08:07:16.051Z,160
2017-04-09T08:07:56.503Z,155
2017-04-09T08:08:36.981Z,150
2017-04-09T08:09:17.565Z,160
2017-04-09T08:09:58.064Z,155
2017-04-09T08:10:38.556Z,150
2017-04-09T08:11:19.049Z,150
2017-04-09T08:11:59.544Z,155
2017-04-09T08:12:40.012Z,160
2017-04-09T08:13:20.470Z,155
2017-04-09T08:14:00.945Z,170
2017-04-09T08:14:41.438Z,165
2017-04-09T08:15:21.959Z,165
2017-04-09T08:16:02.417Z,170
2017-04-09T08:16:42.877Z,175
2017-04-09T08:17:23.363Z,175
2017-04-09T08:18:03.846Z,170
2017-04-09T08:18:44.334Z,155
2017-04-09T08:19:24.849Z,155
2017-04-09T08:20:05.305Z,160
2017-04-09T08:20:45.798Z,160
2017-04-09T08:21:26.273Z,170
2017-04-09T08:22:06.766Z,170
2017-04-09T08:22:47.341Z,165
2017-04-09T08:23:27.832Z,185
2017-04-09T08:24:08.314Z,175
2017-04-09T08:24:48.764Z,180
2017-04-09T08:25:29.242Z,180
2017-04-09T08:26:09.712Z,200
2017-04-09T08:26:50.197Z,220
2017-04-09T08:27:30.706Z,205
2017-04-09T08:28:11.183Z,170
2017-04-09T08:28:51.720Z,190
2017-04-09T08:29:32.198Z,190
2017-04-09T08:30:12.714Z,205
2017-04-09T08:30:53.174Z,220
2017-04-09T08:31:33.653Z,220
2017-04-09T08:32:14.170Z,230
2017-04-09T08:32:54.632Z,230
2017-04-09T08:33:35.116Z,205
2017-04-09T08:34:15.588Z,185
2017-04-09T08:34:56.101Z,180
2017-04-09T08:35:36.576Z,220
2017-04-09T08:36:17.050Z,260
2017-04-09T08:36:57.532Z,270
2017-04-09T08:37:38.011Z,260
2017-04-09T08:38:18.504Z,215
2017-04-09T08:38:59.011Z,200
2017-04-09T08:39:39.519Z,200
2017-04-09T08:40:19.988Z,210
2017-04-09T08:41:00.479Z,205
2017-04-09T08:41:40.972Z,190
2017-04-09T08:42:21.480Z,200
2017-04-09T08:43:01.943Z,230
2017-04-09T08:43:42.440Z,280
2017-04-09T08:44:22.942Z,305
2017-04-09T08:45:03.406Z,320
2017-04-09T08:45:43.865Z,290
2017-04-09T08:46:24.340Z,215
2017-04-09T08:47:04.832Z,210
2017-04-09T08:47:45.285Z,205
2017-04-09T08:48:25.748Z,185
2017-04-09T08:49:06.250Z,180
2017-04-09T08:49:46.735Z,180
2017-04-09T08:50:27.247Z,190
2017-04-09T08:51:07.703Z,185
2017-04-09T08:51:48.198Z,200
2017-04-09T08:52:28.675Z,230
2017-04-09T08:53:09.174Z,265
2017-04-09T08:53:49.636Z,265
2017-04-09T08:54:30.129Z,295
2017-04-09T08:55:10.559Z,340
2017-04-09T08:55:51.050Z,365
2017-04-09T08:56:31.551Z,370
2017-04-09T08:57:12.021Z,370
2017-04-09T08:57:52.519Z,360
2017-04-09T08:58:33.002Z,340
2017-04-09T08:59:13.474Z,385
2017-04-09T08:59:53.966Z,400
2017-04-09T09:00:34.467Z,400
2017-04-09T09:01:14.944Z,390
2017-04-09T09:01:55.413Z,365
2017-04-09T09:02:35.911Z,340
2017-04-09T09:03:16.420Z,370
2017-04-09T09:03:56.910Z,300
2017-04-09T09:04:37.407Z,335
2017-04-09T09:05:17.893Z,340
2017-04-09T09:05:58.395Z,380
2017-04-09T09:06:38.918Z,315
2017-04-09T09:07:19.455Z,270
2017-04-09T09:07:59.940Z,270
2017-04-09T09:08:40.426Z,270
2017-04-09T09:09:20.916Z,290
2017-04-09T09:10:01.416Z,215
2017-04-09T09:10:41.888Z,220
2017-04-09T09:11:22.358Z,220
2017-04-09T09:12:02.877Z,220
2017-04-09T09:12:43.363Z,210
2017-04-09T09:13:23.841Z,230
2017-04-09T09:14:04.329Z,255
2017-04-09T09:14:44.821Z,235
2017-04-09T09:15:25.291Z,240
2017-04-09T09:16:05.739Z,260
2017-04-09T09:16:46.212Z,245
2017-04-09T09:17:26.709Z,245
2017-04-09T09:18:07.182Z,235
2017-04-09T09:18:47.637Z,230
2017-04-09T09:19:28.108Z,250
2017-04-09T09:20:08.615Z,270
2017-04-09T09:20:49.091Z,340
2017-04-09T09:21:29.665Z,315
2017-04-09T09:22:10.137Z,260
2017-04-09T09:22:50.627Z,220
2017-04-09T09:23:31.074Z,235
2017-04-09T09:24:11.570Z,260
2017-04-09T09:24:52.049Z,265
2017-04-09T09:25:32.530Z,290
2017-04-09T09:26:12.978Z,270
2017-04-09T09:26:53.472Z,240
2017-04-09T09:27:33.967Z,205
2017-04-09T09:28:14.450Z,210
2017-04-09T09:28:54.918Z,215
2017-04-09T09:29:35.429Z,225
2017-04-09T09:30:15.927Z,245
2017-04-09T09:30:56.412Z,280
2017-04-09T09:31:36.895Z,310
2017-04-09T09:32:17.402Z,295
2017-04-09T09:32:57.916Z,280
2017-04-09T09:33:38.386Z,255
2017-04-09T09:34:18.895Z,240
2017-04-09T09:34:59.358Z,245
2017-04-09T09:35:39.850Z,280
2017-04-09T09:36:20.348Z,310
2017-04-09T09:37:00.802Z,290
2017-04-09T09:37:41.332Z,245
2017-04-09T09:38:21.760Z,250
2017-04-09T09:39:02.228Z,225